Time;durP1;ratioP1;P1;durP2;ratioP2;P2;SDS_P1;SDS_P2;PMS_P1;PMS_P2;Temp;Humidity;BMP_temperature;BMP_pressure;BME280_temperature;BME280_humidity;BME280_pressure;Samples;Min_cycle;Max_cycle;Signal;HPM_P1;HPM_P2
2022/05/10 00:01:04;;;;;;;7.78;7.07;;;12.50;99.90;;;;;;5032908;28;20236;-78
2022/05/10 00:03:38;;;;;;;8.00;7.35;;;12.40;99.90;;;;;;5033089;28;20222;-78
2022/05/10 00:06:07;;;;;;;7.43;6.82;;;12.30;99.90;;;;;;5031604;28;20181;-77
2022/05/10 00:08:35;;;;;;;7.60;6.82;;;12.30;99.90;;;;;;5036120;28;20175;-78
2022/05/10 00:11:01;;;;;;;7.30;6.70;;;12.30;99.90;;;;;;5034452;28;20191;-77
2022/05/10 00:13:27;;;;;;;7.55;6.88;;;12.20;99.90;;;;;;5035025;28;20180;-77
2022/05/10 00:15:53;;;;;;;8.02;6.97;;;12.10;99.90;;;;;;5033678;28;20558;-77
2022/05/10 00:18:22;;;;;;;7.00;6.50;;;12.00;99.90;;;;;;5034548;28;20223;-77
2022/05/10 00:20:48;;;;;;;7.65;6.60;;;12.00;99.90;;;;;;5034128;28;20274;-77
2022/05/10 00:23:14;;;;;;;8.50;7.70;;;12.00;99.90;;;;;;5033216;28;20703;-78
2022/05/10 00:25:41;;;;;;;7.70;7.10;;;12.00;99.90;;;;;;5033625;28;20548;-77
2022/05/10 00:28:07;;;;;;;7.35;6.85;;;11.90;99.90;;;;;;5034422;28;20552;-77
2022/05/10 00:30:33;;;;;;;7.30;6.72;;;11.90;99.90;;;;;;5036847;28;20176;-78
2022/05/10 00:32:59;;;;;;;6.97;6.28;;;11.90;99.90;;;;;;5029942;28;20271;-77
2022/05/10 00:35:28;;;;;;;7.05;6.55;;;11.90;99.90;;;;;;5034853;28;20264;-78
2022/05/10 00:37:57;;;;;;;7.82;7.25;;;11.90;99.90;;;;;;5033362;28;20204;-77
2022/05/10 00:40:25;;;;;;;8.15;7.25;;;11.90;99.90;;;;;;5033619;28;20545;-78
2022/05/10 00:43:13;;;;;;;7.43;6.93;;;11.90;99.90;;;;;;5034988;28;20211;-78
2022/05/10 00:45:39;;;;;;;7.38;6.88;;;11.90;99.90;;;;;;5034127;28;20192;-78
2022/05/10 00:48:13;;;;;;;7.63;6.93;;;11.90;99.90;;;;;;5033225;28;20687;-78
2022/05/10 00:50:49;;;;;;;7.68;7.07;;;11.80;99.90;;;;;;5033836;28;20187;-78
2022/05/10 00:53:40;;;;;;;7.63;7.03;;;11.80;99.90;;;;;;5034329;28;20172;-77
2022/05/10 00:56:14;;;;;;;8.02;6.80;;;11.70;99.90;;;;;;5043548;28;20224;-78
2022/05/10 00:58:59;;;;;;;8.77;8.00;;;11.70;99.90;;;;;;5033716;28;20184;-77
2022/05/10 01:01:34;;;;;;;7.32;6.68;;;11.60;99.90;;;;;;5032189;28;20200;-77
2022/05/10 01:04:32;;;;;;;7.35;6.85;;;11.60;99.90;;;;;;5046237;28;20186;-78
2022/05/10 01:07:01;;;;;;;7.38;6.85;;;11.60;99.90;;;;;;5033067;28;20213;-77
2022/05/10 01:09:40;;;;;;;8.35;7.55;;;11.60;99.90;;;;;;5031912;28;20179;-78
2022/05/10 01:12:10;;;;;;;7.78;7.18;;;11.60;99.90;;;;;;5030691;28;20267;-78
2022/05/10 01:14:47;;;;;;;7.18;6.68;;;11.60;99.90;;;;;;5033458;28;20211;-78
2022/05/10 01:17:13;;;;;;;7.65;7.00;;;11.50;99.90;;;;;;5033192;28;20223;-77
2022/05/10 01:19:41;;;;;;;8.07;7.47;;;11.50;99.90;;;;;;5034039;28;20188;-77
2022/05/10 01:22:18;;;;;;;7.15;6.65;;;11.60;99.90;;;;;;5034212;28;20203;-78
2022/05/10 01:25:06;;;;;;;7.63;7.10;;;11.60;99.90;;;;;;5032921;28;20184;-77
2022/05/10 01:27:56;;;;;;;8.13;7.00;;;11.60;99.90;;;;;;5031740;28;20242;-78
2022/05/10 01:30:29;;;;;;;7.85;7.18;;;11.50;99.90;;;;;;5032493;28;20180;-78
2022/05/10 01:35:59;;;;;;;8.30;7.63;;;11.30;99.90;;;;;;5034220;28;20195;-77
2022/05/10 01:38:34;;;;;;;8.00;7.30;;;11.30;99.90;;;;;;5029970;28;20192;-77
2022/05/10 01:41:34;;;;;;;8.30;7.60;;;11.30;99.90;;;;;;5032030;28;20200;-77
2022/05/10 01:44:33;;;;;;;9.02;8.32;;;11.30;99.90;;;;;;5032892;28;20659;-78
2022/05/10 01:47:14;;;;;;;8.43;7.75;;;11.30;99.90;;;;;;5029252;28;20215;-77
2022/05/10 01:50:11;;;;;;;8.15;7.53;;;11.30;99.90;;;;;;5032158;28;20678;-77
2022/05/10 01:52:58;;;;;;;8.60;8.00;;;11.30;99.90;;;;;;5023443;28;20188;-77
2022/05/10 01:55:43;;;;;;;9.05;8.25;;;11.20;99.90;;;;;;5028646;28;20611;-77
2022/05/10 01:58:14;;;;;;;9.40;8.65;;;11.20;99.90;;;;;;5030261;28;20196;-77
2022/05/10 02:00:43;;;;;;;9.13;8.32;;;11.20;99.90;;;;;;5030414;28;20207;-77
2022/05/10 02:03:20;;;;;;;8.82;8.13;;;11.10;99.90;;;;;;5033203;28;20208;-78
2022/05/10 02:05:55;;;;;;;8.50;7.80;;;11.00;99.90;;;;;;5032701;28;20725;-77
2022/05/10 02:08:28;;;;;;;8.93;8.15;;;11.10;99.90;;;;;;5033398;28;20195;-77
2022/05/10 02:10:58;;;;;;;8.35;7.75;;;11.10;99.90;;;;;;5033538;28;20224;-77
2022/05/10 02:13:30;;;;;;;8.90;8.20;;;11.10;99.90;;;;;;5032293;28;20177;-77
2022/05/10 02:16:09;;;;;;;8.82;8.07;;;10.90;99.90;;;;;;5032994;28;20176;-77
2022/05/10 02:19:01;;;;;;;8.93;8.13;;;10.90;99.90;;;;;;5033895;28;20168;-77
2022/05/10 02:21:33;;;;;;;9.02;8.20;;;10.90;99.90;;;;;;5034422;28;20252;-77
2022/05/10 02:23:58;;;;;;;9.23;8.43;;;10.90;99.90;;;;;;5031879;28;20660;-77
2022/05/10 02:26:33;;;;;;;8.95;8.25;;;10.90;99.90;;;;;;5032028;28;20173;-77
2022/05/10 02:29:19;;;;;;;8.52;7.90;;;10.90;99.90;;;;;;5030263;28;20627;-77
2022/05/10 02:34:42;;;;;;;8.90;8.00;;;10.80;99.90;;;;;;5033316;28;20260;-78
2022/05/10 02:37:08;;;;;;;8.45;7.65;;;10.80;99.90;;;;;;5031039;28;20207;-78
2022/05/10 02:39:34;;;;;;;8.50;7.80;;;10.90;99.90;;;;;;5032377;28;20188;-77
2022/05/10 02:42:01;;;;;;;9.50;8.70;;;10.80;99.90;;;;;;5032734;28;20240;-77
2022/05/10 02:44:27;;;;;;;9.23;8.52;;;10.90;99.90;;;;;;5033168;28;20644;-77
2022/05/10 02:46:55;;;;;;;8.50;7.90;;;10.80;99.90;;;;;;5031209;28;20228;-77
2022/05/10 02:49:21;;;;;;;8.00;7.38;;;10.80;99.90;;;;;;5033684;28;20173;-78
2022/05/10 02:51:47;;;;;;;8.00;7.32;;;10.80;99.90;;;;;;5036573;28;20203;-77
2022/05/10 02:54:13;;;;;;;8.68;7.65;;;10.70;99.90;;;;;;5036527;28;20825;-77
2022/05/10 02:56:40;;;;;;;7.63;7.13;;;10.60;99.90;;;;;;5034322;28;20578;-77
2022/05/10 02:59:30;;;;;;;7.88;7.18;;;10.70;99.90;;;;;;5036226;28;20234;-77
2022/05/10 03:02:04;;;;;;;7.65;7.10;;;10.70;99.90;;;;;;5035340;28;20236;-77
2022/05/10 03:04:40;;;;;;;8.43;7.63;;;10.70;99.90;;;;;;5033458;28;20180;-77
2022/05/10 03:07:07;;;;;;;8.27;7.47;;;10.60;99.90;;;;;;5034202;28;20196;-77
2022/05/10 03:09:33;;;;;;;10.13;8.05;;;10.50;99.90;;;;;;5037244;28;20546;-77
2022/05/10 03:11:59;;;;;;;9.57;8.68;;;10.50;99.90;;;;;;5031573;28;20184;-77
2022/05/10 03:14:24;;;;;;;8.43;7.68;;;10.50;99.90;;;;;;5035682;28;20264;-77
2022/05/10 03:16:50;;;;;;;7.35;6.82;;;10.50;99.90;;;;;;5037428;28;20242;-77
2022/05/10 03:19:16;;;;;;;7.70;7.13;;;10.50;99.90;;;;;;5032744;28;20185;-77
2022/05/10 03:21:42;;;;;;;8.57;7.78;;;10.40;99.90;;;;;;5033803;28;20211;-77
2022/05/10 03:24:08;;;;;;;8.27;7.55;;;10.30;99.90;;;;;;5034981;28;20177;-77
2022/05/10 03:26:35;;;;;;;8.55;7.75;;;10.30;99.90;;;;;;5035631;28;20201;-77
2022/05/10 03:29:01;;;;;;;9.27;8.48;;;10.20;99.90;;;;;;5033243;28;20234;-77
2022/05/10 03:31:29;;;;;;;9.15;8.25;;;10.10;99.90;;;;;;5035957;28;20208;-78
2022/05/10 03:36:40;;;;;;;9.25;8.45;;;10.10;99.90;;;;;;5035772;28;20294;-78
2022/05/10 03:39:07;;;;;;;9.45;8.27;;;9.90;99.90;;;;;;5034083;28;20629;-77
2022/05/10 03:41:33;;;;;;;8.50;7.70;;;9.90;99.90;;;;;;5035044;28;20215;-77
2022/05/10 03:43:59;;;;;;;8.23;7.63;;;9.90;99.90;;;;;;5033873;28;20259;-77
2022/05/10 03:46:26;;;;;;;7.55;6.97;;;10.00;99.90;;;;;;5032487;28;20283;-77
2022/05/10 03:48:51;;;;;;;8.65;7.88;;;10.10;99.90;;;;;;5033884;28;20180;-77
2022/05/10 03:51:17;;;;;;;9.02;8.32;;;10.20;99.90;;;;;;5034133;28;20185;-77
2022/05/10 03:53:47;;;;;;;8.88;8.07;;;10.30;99.90;;;;;;5034381;28;20921;-78
2022/05/10 03:56:13;;;;;;;8.25;7.53;;;10.30;99.90;;;;;;5024336;28;20189;-77
2022/05/10 03:58:39;;;;;;;7.88;7.28;;;10.30;99.90;;;;;;5031516;28;20200;-78
2022/05/10 04:01:07;;;;;;;8.43;7.75;;;10.30;99.90;;;;;;5033738;28;20190;-77
2022/05/10 04:03:34;;;;;;;8.38;7.70;;;10.30;99.90;;;;;;5031086;28;20255;-77
2022/05/10 04:06:00;;;;;;;9.23;8.52;;;10.30;99.90;;;;;;5033283;28;20544;-77
2022/05/10 04:08:27;;;;;;;11.98;8.90;;;10.30;99.90;;;;;;5033856;28;20276;-77
2022/05/10 04:10:53;;;;;;;8.50;7.80;;;10.30;99.90;;;;;;5028119;28;20614;-77
2022/05/10 04:13:19;;;;;;;8.93;8.13;;;10.20;99.90;;;;;;5033665;28;20203;-77
2022/05/10 04:15:45;;;;;;;8.27;7.57;;;10.30;99.90;;;;;;5033672;28;20177;-77
2022/05/10 04:18:10;;;;;;;8.70;7.97;;;10.30;99.90;;;;;;5032738;28;20211;-77
2022/05/10 04:20:36;;;;;;;10.13;9.23;;;10.30;99.90;;;;;;5033489;28;20181;-77
2022/05/10 04:23:02;;;;;;;9.18;8.20;;;10.40;99.90;;;;;;5032949;28;20204;-77
2022/05/10 04:25:28;;;;;;;9.32;8.52;;;10.50;99.90;;;;;;5033525;28;20181;-77
2022/05/10 04:27:54;;;;;;;9.23;8.52;;;10.50;99.90;;;;;;5032687;28;20207;-78
2022/05/10 04:30:21;;;;;;;9.48;8.77;;;10.60;99.90;;;;;;5027572;28;20303;-77
2022/05/10 04:32:47;;;;;;;9.50;8.60;;;10.60;99.90;;;;;;5033299;28;20216;-77
2022/05/10 04:35:13;;;;;;;9.63;8.80;;;10.60;99.90;;;;;;5033398;28;20212;-77
2022/05/10 04:37:39;;;;;;;8.85;8.05;;;10.60;99.90;;;;;;5032845;28;20213;-78
2022/05/10 04:42:52;;;;;;;9.38;8.68;;;10.70;99.90;;;;;;5033839;28;20274;-77
2022/05/10 04:45:18;;;;;;;9.98;9.15;;;10.80;99.90;;;;;;5032419;28;20179;-78
2022/05/10 04:47:44;;;;;;;10.23;9.27;;;10.80;99.90;;;;;;5033192;28;20284;-78
2022/05/10 04:50:10;;;;;;;9.02;8.32;;;10.80;99.90;;;;;;5032705;28;20614;-78
2022/05/10 04:52:37;;;;;;;10.55;9.52;;;10.90;99.90;;;;;;5032714;28;20255;-77
2022/05/10 04:55:04;;;;;;;10.13;9.23;;;11.10;99.90;;;;;;5033459;28;20242;-78
2022/05/10 04:57:30;;;;;;;9.50;8.70;;;11.10;99.90;;;;;;5034008;28;20558;-78
2022/05/10 04:59:55;;;;;;;9.38;8.57;;;11.20;99.90;;;;;;5026000;28;20187;-77
2022/05/10 05:02:21;;;;;;;9.23;8.48;;;11.30;99.90;;;;;;5032208;28;20247;-78
2022/05/10 05:04:47;;;;;;;9.23;8.43;;;11.40;99.90;;;;;;5033111;28;20633;-78
2022/05/10 05:07:12;;;;;;;9.15;8.48;;;11.50;99.90;;;;;;5032714;28;20633;-78
2022/05/10 05:09:38;;;;;;;10.68;9.88;;;11.60;99.90;;;;;;5033641;28;20188;-77
2022/05/10 05:12:04;;;;;;;8.98;8.07;;;11.60;99.90;;;;;;5031365;28;20215;-77
2022/05/10 05:14:31;;;;;;;10.70;9.80;;;11.70;99.90;;;;;;5031968;28;20196;-77
2022/05/10 05:16:58;;;;;;;10.45;9.50;;;11.80;99.90;;;;;;5032576;28;20250;-78
2022/05/10 05:19:23;;;;;;;10.07;9.10;;;11.90;99.90;;;;;;5032263;28;20271;-78
2022/05/10 05:21:49;;;;;;;10.80;9.80;;;11.90;99.90;;;;;;5032943;28;20315;-77
2022/05/10 05:24:15;;;;;;;9.85;8.93;;;12.10;99.90;;;;;;5032836;28;20194;-77
2022/05/10 05:26:40;;;;;;;10.25;9.15;;;12.20;99.90;;;;;;5032362;28;20207;-77
2022/05/10 05:29:06;;;;;;;9.20;8.55;;;12.30;99.90;;;;;;5033000;28;20181;-77
2022/05/10 05:31:32;;;;;;;9.75;8.85;;;12.40;99.90;;;;;;5032880;28;20235;-79
2022/05/10 05:33:58;;;;;;;9.98;9.18;;;12.50;99.90;;;;;;5030222;28;20184;-78
2022/05/10 05:36:24;;;;;;;10.35;9.55;;;12.60;99.90;;;;;;5032344;28;20183;-78
2022/05/10 05:38:50;;;;;;;10.80;9.95;;;12.70;99.90;;;;;;5033219;28;20195;-77
2022/05/10 05:41:18;;;;;;;9.05;8.35;;;12.70;99.90;;;;;;5032394;28;20311;-77
2022/05/10 05:43:44;;;;;;;10.98;9.88;;;12.80;99.90;;;;;;5029961;28;20186;-78
2022/05/10 05:46:10;;;;;;;10.13;9.32;;;12.90;99.90;;;;;;5032998;28;20188;-78
2022/05/10 05:48:35;;;;;;;10.73;9.55;;;13.00;99.90;;;;;;5029715;28;20181;-78
2022/05/10 05:51:01;;;;;;;9.45;8.65;;;13.10;99.90;;;;;;5028721;28;20191;-77
2022/05/10 05:53:27;;;;;;;10.77;9.88;;;13.20;99.90;;;;;;5031315;28;20358;-77
2022/05/10 05:55:53;;;;;;;11.48;10.13;;;13.30;99.90;;;;;;5031040;28;20219;-77
2022/05/10 05:58:19;;;;;;;10.85;9.88;;;13.40;99.90;;;;;;5032337;28;20694;-77
2022/05/10 06:00:45;;;;;;;11.45;9.57;;;13.50;99.90;;;;;;5032426;28;20215;-77
2022/05/10 06:03:12;;;;;;;10.60;9.80;;;13.70;99.90;;;;;;5028267;28;20239;-77
2022/05/10 06:05:37;;;;;;;10.20;9.20;;;13.80;99.90;;;;;;5032816;28;20192;-77
2022/05/10 06:08:06;;;;;;;12.48;9.60;;;13.80;99.90;;;;;;5035611;28;20196;-77
2022/05/10 06:10:31;;;;;;;11.57;9.90;;;13.90;99.90;;;;;;5030898;28;20173;-78
2022/05/10 06:13:03;;;;;;;9.88;9.07;;;14.00;99.90;;;;;;5031768;28;20181;-79
2022/05/10 06:15:29;;;;;;;10.98;10.07;;;14.20;99.90;;;;;;5031550;28;20638;-78
2022/05/10 06:17:56;;;;;;;10.48;9.25;;;14.30;99.90;;;;;;5046273;28;20205;-78
2022/05/10 06:20:24;;;;;;;10.10;9.15;;;14.50;99.90;;;;;;5032879;28;20234;-78
2022/05/10 06:22:50;;;;;;;10.57;9.75;;;14.60;99.90;;;;;;5030544;28;20199;-79
2022/05/10 06:25:19;;;;;;;10.05;9.18;;;14.80;99.90;;;;;;5035182;28;20173;-77
2022/05/10 06:27:46;;;;;;;9.70;8.90;;;14.90;99.90;;;;;;5035319;28;20227;-78
2022/05/10 06:30:12;;;;;;;9.65;8.65;;;15.00;99.90;;;;;;5035793;28;20199;-78
2022/05/10 06:32:38;;;;;;;9.80;8.95;;;15.20;99.90;;;;;;5035474;28;20609;-78
2022/05/10 06:35:04;;;;;;;9.35;8.57;;;15.40;99.90;;;;;;5035289;28;20176;-77
2022/05/10 06:40:16;;;;;;;10.05;9.13;;;15.60;99.90;;;;;;5034931;28;20602;-77
2022/05/10 06:42:42;;;;;;;9.65;8.85;;;15.80;99.90;;;;;;5033768;28;20281;-79
2022/05/10 06:45:11;;;;;;;9.80;8.90;;;15.90;99.90;;;;;;5033053;28;20601;-79
2022/05/10 06:47:42;;;;;;;9.38;8.57;;;16.00;99.90;;;;;;5035340;28;20201;-77
2022/05/10 06:50:11;;;;;;;9.15;8.27;;;16.10;99.90;;;;;;5034652;28;20250;-78
2022/05/10 06:52:37;;;;;;;9.00;8.30;;;16.20;99.90;;;;;;5034935;28;20189;-78
2022/05/10 06:55:05;;;;;;;8.95;8.15;;;16.30;99.90;;;;;;5035496;28;20180;-78
2022/05/10 06:57:30;;;;;;;8.57;7.95;;;16.50;99.90;;;;;;5036160;28;20196;-78
2022/05/10 06:59:56;;;;;;;7.78;7.18;;;16.60;99.90;;;;;;5035452;28;20180;-77
2022/05/10 07:02:24;;;;;;;7.53;6.88;;;16.80;99.90;;;;;;5032148;28;20683;-79
2022/05/10 07:04:50;;;;;;;8.23;7.45;;;17.00;99.90;;;;;;5035156;28;20684;-78
2022/05/10 07:07:16;;;;;;;8.30;7.38;;;17.10;99.90;;;;;;5035162;28;20192;-77
2022/05/10 07:09:42;;;;;;;10.23;7.43;;;17.20;99.90;;;;;;5034340;28;20188;-78
2022/05/10 07:12:08;;;;;;;6.75;6.25;;;17.30;99.90;;;;;;5034654;28;20703;-77
2022/05/10 07:14:33;;;;;;;7.53;6.80;;;17.50;99.90;;;;;;5035695;28;20208;-77
2022/05/10 07:16:59;;;;;;;7.88;6.95;;;17.60;99.90;;;;;;5034522;28;20209;-78
2022/05/10 07:19:24;;;;;;;9.27;6.80;;;17.80;99.90;;;;;;5035542;28;20271;-77
2022/05/10 07:21:50;;;;;;;7.63;6.93;;;17.90;99.90;;;;;;5034638;28;20258;-77
2022/05/10 07:24:19;;;;;;;7.43;6.82;;;17.90;99.90;;;;;;5034618;28;20176;-77
2022/05/10 07:26:45;;;;;;;7.97;7.28;;;17.90;99.90;;;;;;5035114;28;20707;-77
2022/05/10 07:29:11;;;;;;;8.98;7.15;;;17.80;99.90;;;;;;5034074;28;20234;-78
2022/05/10 07:31:37;;;;;;;9.38;7.30;;;18.00;99.90;;;;;;5036314;28;20189;-78
2022/05/10 07:34:03;;;;;;;9.43;7.28;;;18.20;99.90;;;;;;5032908;28;20192;-77
2022/05/10 07:36:33;;;;;;;7.70;6.55;;;18.30;99.90;;;;;;5033053;28;20235;-77
2022/05/10 07:39:00;;;;;;;6.82;6.32;;;18.50;99.90;;;;;;5031295;28;20187;-77
2022/05/10 07:41:26;;;;;;;7.00;6.40;;;18.60;99.90;;;;;;5034582;28;20222;-77
2022/05/10 07:43:52;;;;;;;7.20;6.60;;;18.60;99.90;;;;;;5033318;28;20260;-77
2022/05/10 07:46:18;;;;;;;7.05;6.40;;;18.70;99.90;;;;;;5034092;28;20185;-77
2022/05/10 07:48:44;;;;;;;7.38;6.88;;;18.80;99.90;;;;;;5037418;28;20190;-78
2022/05/10 07:51:10;;;;;;;7.93;7.25;;;18.90;99.90;;;;;;5032460;28;20176;-77
2022/05/10 07:53:36;;;;;;;7.95;7.20;;;19.10;99.90;;;;;;5029217;28;20234;-77
2022/05/10 07:56:03;;;;;;;8.13;7.53;;;19.20;99.90;;;;;;5032928;28;20546;-77
2022/05/10 07:58:30;;;;;;;8.45;7.63;;;19.30;99.90;;;;;;5032899;28;20714;-77
2022/05/10 08:00:56;;;;;;;8.15;7.35;;;19.30;99.90;;;;;;5032037;28;20184;-78
2022/05/10 08:03:24;;;;;;;8.90;8.20;;;19.40;99.90;;;;;;5032913;28;20204;-78
2022/05/10 08:05:52;;;;;;;8.02;7.28;;;19.50;99.90;;;;;;5034945;28;20679;-78
2022/05/10 08:08:17;;;;;;;8.50;7.55;;;19.60;99.90;;;;;;5033408;28;20196;-77
2022/05/10 08:10:45;;;;;;;8.60;7.68;;;19.60;99.90;;;;;;5033889;28;20188;-77
2022/05/10 08:13:12;;;;;;;7.95;7.35;;;19.70;99.90;;;;;;5031904;28;20230;-77
2022/05/10 08:15:38;;;;;;;9.60;8.15;;;19.70;99.90;;;;;;5032796;28;20275;-77
2022/05/10 08:18:06;;;;;;;7.65;7.05;;;19.70;99.90;;;;;;5031982;28;20687;-77
2022/05/10 08:20:31;;;;;;;8.10;7.45;;;19.80;99.90;;;;;;5031912;28;20184;-78
2022/05/10 08:22:57;;;;;;;10.13;8.23;;;19.80;99.90;;;;;;5031260;28;20212;-77
2022/05/10 08:25:23;;;;;;;8.30;7.53;;;19.80;99.90;;;;;;5033892;28;20212;-77
2022/05/10 08:27:49;;;;;;;7.75;7.13;;;19.90;99.90;;;;;;5030304;28;20315;-77
2022/05/10 08:30:15;;;;;;;8.73;7.93;;;20.00;99.90;;;;;;5032631;28;20195;-78
2022/05/10 08:32:42;;;;;;;8.82;7.95;;;20.10;99.90;;;;;;5033144;28;20180;-77
2022/05/10 08:35:08;;;;;;;8.32;7.72;;;20.20;99.90;;;;;;5031999;28;20180;-77
2022/05/10 08:37:37;;;;;;;8.98;8.27;;;20.30;99.90;;;;;;5030399;28;20243;-78
2022/05/10 08:40:08;;;;;;;7.68;7.07;;;20.40;99.90;;;;;;5032930;28;20173;-77
2022/05/10 08:42:44;;;;;;;8.10;7.28;;;20.50;99.90;;;;;;5033201;28;20307;-77
2022/05/10 08:45:10;;;;;;;7.75;7.25;;;20.60;99.90;;;;;;5031438;28;20181;-77
2022/05/10 08:47:37;;;;;;;8.77;8.07;;;20.60;99.90;;;;;;5032513;28;20253;-77
2022/05/10 08:50:09;;;;;;;8.35;7.75;;;20.70;99.90;;;;;;5032773;28;20188;-78
2022/05/10 08:52:39;;;;;;;8.15;7.55;;;20.60;99.90;;;;;;5046375;28;20218;-78
2022/05/10 08:55:08;;;;;;;8.13;7.32;;;20.80;99.90;;;;;;5031094;28;20184;-77
2022/05/10 08:57:50;;;;;;;10.70;7.65;;;20.80;99.90;;;;;;5032751;28;20564;-77
2022/05/10 09:00:34;;;;;;;8.00;7.28;;;20.90;99.90;;;;;;5031576;28;20192;-78
2022/05/10 09:03:24;;;;;;;7.88;7.28;;;20.90;99.90;;;;;;5032701;28;20750;-78
2022/05/10 09:05:51;;;;;;;9.60;8.15;;;21.00;99.90;;;;;;5033446;28;20578;-77
2022/05/10 09:08:41;;;;;;;7.47;6.72;;;21.30;99.90;;;;;;5032313;28;20188;-77
2022/05/10 09:11:12;;;;;;;7.53;7.03;;;21.50;99.90;;;;;;5029830;28;20180;-77
2022/05/10 09:13:38;;;;;;;7.60;7.00;;;21.70;99.90;;;;;;5032363;28;20259;-78
2022/05/10 09:16:10;;;;;;;7.50;6.90;;;21.80;99.90;;;;;;5032666;28;20191;-77
2022/05/10 09:18:53;;;;;;;7.15;6.65;;;22.00;99.90;;;;;;5031738;28;20189;-78
2022/05/10 09:21:23;;;;;;;6.75;6.15;;;22.50;99.90;;;;;;5044515;28;20259;-77
2022/05/10 09:23:58;;;;;;;7.05;6.55;;;23.80;99.90;;;;;;5031189;28;20247;-77
2022/05/10 09:26:30;;;;;;;6.95;6.43;;;25.90;99.90;;;;;;5030710;28;20168;-77
2022/05/10 09:29:00;;;;;;;5.75;5.35;;;28.00;99.90;;;;;;5031951;28;20176;-77
2022/05/10 09:36:54;;;;;;;5.43;4.97;;;32.20;77.00;;;;;;5030369;28;20299;-75
2022/05/10 09:39:31;;;;;;;4.63;4.20;;;33.50;67.20;;;;;;5032115;28;20267;-75
2022/05/10 09:41:57;;;;;;;6.88;5.65;;;34.20;62.30;;;;;;5027563;28;20258;-75
2022/05/10 09:44:28;;;;;;;5.30;4.90;;;35.10;58.50;;;;;;5031466;28;20180;-75
2022/05/10 09:47:20;;;;;;;7.00;5.38;;;34.30;59.40;;;;;;5030830;28;20210;-75
2022/05/10 09:49:45;;;;;;;5.03;4.65;;;34.60;59.60;;;;;;5026456;28;20188;-75
2022/05/10 09:52:21;;;;;;;4.95;4.65;;;36.10;57.10;;;;;;5029644;28;20186;-75
2022/05/10 09:54:50;;;;;;;6.10;5.53;;;37.50;53.00;;;;;;5029620;28;20183;-75
2022/05/10 09:57:49;;;;;;;5.07;4.78;;;37.20;51.30;;;;;;5032065;28;20231;-75
2022/05/10 10:00:15;;;;;;;5.30;4.80;;;36.90;50.40;;;;;;5052841;28;20195;-73
2022/05/10 10:02:42;;;;;;;4.45;4.05;;;37.70;49.60;;;;;;5034028;28;20207;-73
2022/05/10 10:05:20;;;;;;;4.60;4.05;;;38.80;48.00;;;;;;5034205;28;20183;-73
2022/05/10 10:07:53;;;;;;;4.43;4.22;;;39.20;45.20;;;;;;5035185;28;20201;-72
2022/05/10 10:10:33;;;;;;;5.20;4.45;;;39.20;46.00;;;;;;5033036;28;20556;-73
2022/05/10 10:12:59;;;;;;;5.25;4.95;;;39.00;46.10;;;;;;5035123;28;20186;-73
2022/05/10 10:15:40;;;;;;;4.30;3.97;;;39.80;45.30;;;;;;5035153;28;20710;-74
2022/05/10 10:18:37;;;;;;;4.97;4.68;;;39.60;44.50;;;;;;5034297;28;20207;-73
2022/05/10 10:21:04;;;;;;;5.38;4.60;;;39.10;44.00;;;;;;5033709;28;20210;-73
2022/05/10 10:23:37;;;;;;;4.93;4.50;;;39.10;45.30;;;;;;5033647;28;20378;-73
2022/05/10 10:26:23;;;;;;;6.07;3.85;;;38.60;45.20;;;;;;5033397;28;20218;-73
2022/05/10 10:29:11;;;;;;;5.15;4.32;;;39.30;43.70;;;;;;5034099;28;20183;-73
2022/05/10 10:32:04;;;;;;;4.43;4.15;;;39.60;44.40;;;;;;5032799;28;20176;-73
2022/05/10 10:34:48;;;;;;;3.65;3.35;;;39.00;44.50;;;;;;5031132;28;20183;-73
2022/05/10 10:37:23;;;;;;;4.93;4.53;;;39.40;44.70;;;;;;5033160;28;20229;-73
2022/05/10 10:40:03;;;;;;;4.25;3.95;;;39.90;44.10;;;;;;5035119;28;20179;-73
2022/05/10 10:42:31;;;;;;;4.63;3.15;;;40.20;43.90;;;;;;5029262;28;20208;-73
2022/05/10 10:45:00;;;;;;;3.40;3.20;;;40.70;42.80;;;;;;5032924;28;20219;-74
2022/05/10 10:47:53;;;;;;;3.63;3.30;;;41.10;41.80;;;;;;5035171;28;20199;-73
2022/05/10 10:50:21;;;;;;;3.20;3.00;;;41.60;40.40;;;;;;5034234;28;20203;-74
2022/05/10 10:52:47;;;;;;;3.38;3.08;;;41.30;40.50;;;;;;5034371;28;20176;-73
2022/05/10 10:55:18;;;;;;;3.85;3.08;;;41.90;38.10;;;;;;5034507;28;20354;-74
2022/05/10 10:58:08;;;;;;;3.15;2.95;;;41.20;39.00;;;;;;5035533;28;20251;-73
2022/05/10 11:00:54;;;;;;;3.40;3.20;;;41.70;38.20;;;;;;5033239;28;20215;-73
2022/05/10 11:03:42;;;;;;;3.45;3.25;;;41.10;39.70;;;;;;5034217;28;20254;-73
2022/05/10 11:06:24;;;;;;;3.67;3.40;;;41.00;38.60;;;;;;5033291;28;20186;-73
2022/05/10 11:09:14;;;;;;;3.70;3.40;;;40.70;39.70;;;;;;5033547;28;20258;-73
2022/05/10 11:12:04;;;;;;;3.28;2.95;;;40.90;40.10;;;;;;5044325;28;20206;-73
2022/05/10 11:14:35;;;;;;;3.83;2.60;;;41.10;40.00;;;;;;5034593;28;20671;-73
2022/05/10 11:17:40;;;;;;;2.60;2.40;;;41.90;37.30;;;;;;5030158;28;20204;-73
2022/05/10 11:20:34;;;;;;;2.45;2.35;;;42.00;37.20;;;;;;5030523;28;20191;-73
2022/05/10 11:23:07;;;;;;;2.60;2.40;;;42.10;35.60;;;;;;5027588;28;20227;-73
2022/05/10 11:26:03;;;;;;;4.07;2.60;;;41.90;35.40;;;;;;5033036;28;20678;-76
2022/05/10 11:28:54;;;;;;;2.60;2.50;;;42.00;36.80;;;;;;5034006;28;20202;-73
2022/05/10 11:31:45;;;;;;;3.85;2.80;;;42.50;36.00;;;;;;5030046;28;20172;-74
2022/05/10 11:34:25;;;;;;;3.15;2.90;;;41.50;37.10;;;;;;5030884;28;20181;-74
2022/05/10 11:36:52;;;;;;;3.38;3.13;;;40.10;39.50;;;;;;5033988;28;20562;-73
2022/05/10 11:39:24;;;;;;;2.95;2.75;;;40.10;40.30;;;;;;5032473;28;20685;-73
2022/05/10 11:42:33;;;;;;;2.90;2.70;;;40.80;40.40;;;;;;5032934;28;20234;-73
2022/05/10 11:45:32;;;;;;;3.28;2.97;;;41.40;37.70;;;;;;5033219;28;20745;-73
2022/05/10 11:48:21;;;;;;;2.40;2.30;;;41.10;38.50;;;;;;5032818;28;20572;-73
2022/05/10 11:54:27;;;;;;;3.05;2.85;;;42.40;35.20;;;;;;5032513;28;20717;-73
2022/05/10 11:56:54;;;;;;;2.90;2.70;;;41.70;36.70;;;;;;5030690;28;20716;-73
2022/05/10 11:59:31;;;;;;;2.90;2.70;;;41.50;36.70;;;;;;5030550;28;20180;-73
2022/05/10 12:01:58;;;;;;;3.88;2.90;;;40.70;38.10;;;;;;5032751;28;20204;-74
2022/05/10 12:04:35;;;;;;;3.40;3.10;;;40.30;38.60;;;;;;5033114;28;20259;-73
2022/05/10 12:07:19;;;;;;;2.33;2.10;;;39.60;39.70;;;;;;5029332;28;20199;-73
2022/05/10 12:10:07;;;;;;;2.70;2.50;;;39.30;39.40;;;;;;5033219;28;20179;-73
2022/05/10 12:12:32;;;;;;;3.88;2.58;;;39.70;38.00;;;;;;5027419;28;20179;-73
2022/05/10 12:21:21;;;;;;;3.38;2.30;;;38.50;39.40;;;;;;5031983;28;20677;-73
2022/05/10 12:24:26;;;;;;;2.63;2.42;;;38.60;39.40;;;;;;5032160;28;20186;-74
2022/05/10 12:26:57;;;;;;;2.50;2.35;;;38.50;39.90;;;;;;5032724;28;20220;-73
2022/05/10 12:29:37;;;;;;;2.38;2.17;;;39.80;38.20;;;;;;5028790;28;20577;-73
2022/05/10 12:32:26;;;;;;;2.92;2.72;;;40.20;37.70;;;;;;5032109;28;20193;-74
2022/05/10 12:34:56;;;;;;;6.93;2.58;;;39.80;37.90;;;;;;5032723;28;20282;-74
2022/05/10 12:37:35;;;;;;;2.30;2.20;;;40.70;36.50;;;;;;5033118;28;20184;-73
2022/05/10 12:40:10;;;;;;;3.13;2.75;;;40.20;38.00;;;;;;5028711;28;20176;-74
2022/05/10 12:43:15;;;;;;;2.75;2.30;;;39.60;37.50;;;;;;5031347;28;20222;-74
2022/05/10 12:45:55;;;;;;;2.35;2.25;;;39.60;38.30;;;;;;5031266;28;20176;-74
2022/05/10 12:48:58;;;;;;;1.92;1.83;;;40.80;37.10;;;;;;5030642;28;20187;-73
2022/05/10 12:51:32;;;;;;;2.22;1.90;;;42.60;34.70;;;;;;5031238;28;20184;-73
2022/05/10 12:54:32;;;;;;;2.08;1.98;;;43.30;34.30;;;;;;5042070;28;20180;-73
2022/05/10 12:57:24;;;;;;;1.80;1.80;;;44.40;32.60;;;;;;5031641;28;20192;-74
2022/05/10 13:00:03;;;;;;;2.00;1.90;;;45.90;33.60;;;;;;5042282;28;20269;-76
2022/05/10 13:02:30;;;;;;;1.90;1.88;;;47.30;31.30;;;;;;5032537;28;20674;-76
2022/05/10 13:05:01;;;;;;;1.95;1.85;;;47.60;30.20;;;;;;5028649;28;20198;-76
2022/05/10 13:08:05;;;;;;;2.17;2.03;;;48.10;29.80;;;;;;5031974;28;20234;-74
2022/05/10 13:10:34;;;;;;;2.03;1.92;;;50.00;28.80;;;;;;5028417;28;20207;-74
2022/05/10 13:13:15;;;;;;;2.83;2.63;;;48.00;29.30;;;;;;5028047;28;20184;-73
2022/05/10 13:15:45;;;;;;;2.85;2.20;;;44.30;31.80;;;;;;5032463;28;20175;-73
2022/05/10 13:18:17;;;;;;;3.38;2.53;;;40.70;34.40;;;;;;5030678;28;20254;-74
2022/05/10 13:20:52;;;;;;;2.58;2.40;;;37.90;37.10;;;;;;5032070;28;20180;-74
2022/05/10 13:23:19;;;;;;;3.00;2.55;;;37.10;39.50;;;;;;5031418;28;20749;-73
2022/05/10 13:25:46;;;;;;;3.88;2.30;;;40.80;36.90;;;;;;5032789;28;20593;-75
2022/05/10 13:28:32;;;;;;;2.63;2.30;;;44.30;32.90;;;;;;5029872;28;20195;-74
2022/05/10 13:31:00;;;;;;;2.30;2.10;;;47.10;31.30;;;;;;5031687;28;20212;-74
2022/05/10 13:33:38;;;;;;;3.05;2.20;;;47.90;30.60;;;;;;5031003;28;20188;-77
2022/05/10 13:36:09;;;;;;;1.90;1.80;;;49.10;28.90;;;;;;5030583;28;20179;-76
2022/05/10 13:38:44;;;;;;;1.98;1.88;;;47.00;29.10;;;;;;5031789;28;20191;-76
2022/05/10 13:41:22;;;;;;;2.92;2.10;;;46.60;29.60;;;;;;5031345;28;20278;-74